KELK/ELK METAR and TAF weather

Enter ICAO airport designator
Station Type Date Time Source
KELK METAR 2020/03/29 12:15 UTC NOAA

KELK 291215Z AUTO 31003KT 10SM CLR 01/M01 A3012 RMK AO2 T00111007


Station Type Date Time Source
KELK Decoded METAR 2020/03/29 12:15 UTC NOAA

Station name not available
Mar 29, 2020 - 08:15 AM EDT / 2020.03.29 1215 UTC
Wind: from the NW (310 degrees) at 3 MPH (3 KT):0
Visibility: 10 mile(s):0
Sky conditions: clear
Temperature: 34.0 F (1.1 C)
Dew Point: 30.7 F (-0.7 C)
Relative Humidity: 87%
Pressure (altimeter): 30.12 in. Hg (1019 hPa)
ob: KELK 291215Z AUTO 31003KT 10SM CLR 01/M01 A3012 RMK AO2 T00111007
cycle: 12

Station Type Date Time Source
KELK TAF UTC NOAA

Error!

Example: see airport list